Time;durP1;ratioP1;P1;durP2;ratioP2;P2;SDS_P1;SDS_P2;PMS_P1;PMS_P2;Temp;Humidity;BMP_temperature;BMP_pressure;BME280_temperature;BME280_humidity;BME280_pressure;Samples;Min_cycle;Max_cycle;Signal;HPM_P1;HPM_P2
2022/10/18 00:00:46;;;;;;;6.78;2.78;;;10.10;99.90;;;;;;5031796;28;20260;-51
2022/10/18 00:03:13;;;;;;;7.50;2.72;;;10.10;99.90;;;;;;5031684;28;20069;-49
2022/10/18 00:05:40;;;;;;;4.07;2.30;;;10.10;99.90;;;;;;5031105;28;20045;-49
2022/10/18 00:08:07;;;;;;;8.10;2.40;;;10.00;99.90;;;;;;5030930;28;20049;-48
2022/10/18 00:10:33;;;;;;;4.18;2.60;;;10.10;99.90;;;;;;5031590;28;20080;-50
2022/10/18 00:13:00;;;;;;;15.45;3.13;;;10.10;99.90;;;;;;5031818;28;20041;-49
2022/10/18 00:15:27;;;;;;;4.57;2.45;;;10.10;99.90;;;;;;5029403;28;20102;-49
2022/10/18 00:17:54;;;;;;;5.65;3.00;;;10.00;99.90;;;;;;5031811;28;20041;-52
2022/10/18 00:20:20;;;;;;;7.15;3.00;;;10.00;99.90;;;;;;5031049;28;20111;-49
2022/10/18 00:22:47;;;;;;;6.80;2.75;;;9.90;99.90;;;;;;5031279;28;20465;-50
2022/10/18 00:25:14;;;;;;;8.65;2.83;;;9.90;99.90;;;;;;5029446;28;20076;-51
2022/10/18 00:27:41;;;;;;;5.82;2.63;;;9.90;99.90;;;;;;5031692;28;20076;-52
2022/10/18 00:30:08;;;;;;;3.65;1.75;;;9.90;99.90;;;;;;5013836;28;20095;-48
2022/10/18 00:32:39;;;;;;;5.70;2.97;;;9.90;99.90;;;;;;5030556;28;20111;-48
2022/10/18 00:35:07;;;;;;;7.72;3.35;;;10.00;99.90;;;;;;5031046;28;20033;-48
2022/10/18 00:37:34;;;;;;;12.18;3.90;;;9.90;99.90;;;;;;5119733;22;20576;-47
2022/10/18 00:40:01;;;;;;;10.93;3.80;;;9.90;99.90;;;;;;5122990;27;20031;-49
2022/10/18 00:42:34;;;;;;;13.40;3.92;;;9.90;99.90;;;;;;5111999;28;20043;-47
2022/10/18 00:45:24;;;;;;;12.52;4.20;;;9.90;99.90;;;;;;5110884;28;20074;-46
2022/10/18 00:47:56;;;;;;;9.15;3.83;;;9.90;99.90;;;;;;5118112;27;20077;-46
2022/10/18 00:50:25;;;;;;;10.15;4.10;;;9.90;99.90;;;;;;5131331;27;20039;-49
2022/10/18 00:52:58;;;;;;;12.57;4.30;;;9.90;99.90;;;;;;5130396;27;20101;-47
2022/10/18 00:55:26;;;;;;;11.57;4.50;;;9.90;99.90;;;;;;5119235;28;20080;-46
2022/10/18 00:57:54;;;;;;;18.83;6.22;;;9.90;99.90;;;;;;5120142;28;20480;-47
2022/10/18 01:00:25;;;;;;;10.15;4.75;;;10.00;99.90;;;;;;5110292;28;20039;-46
2022/10/18 01:02:52;;;;;;;18.27;5.93;;;9.90;99.90;;;;;;5126618;28;20043;-47
2022/10/18 01:05:19;;;;;;;17.77;5.00;;;10.00;99.90;;;;;;5131160;28;20093;-47
2022/10/18 01:08:06;;;;;;;9.90;4.35;;;10.00;99.90;;;;;;5131946;28;20074;-48
2022/10/18 01:10:39;;;;;;;13.95;5.20;;;10.00;99.90;;;;;;5119635;28;20040;-47
2022/10/18 01:13:28;;;;;;;15.38;5.32;;;9.90;99.90;;;;;;5120163;28;20064;-46
2022/10/18 01:16:00;;;;;;;11.30;5.05;;;10.00;99.90;;;;;;5117622;28;20077;-49
2022/10/18 01:18:43;;;;;;;11.15;5.13;;;10.00;99.90;;;;;;5128895;28;20027;-52
2022/10/18 01:21:23;;;;;;;9.73;4.55;;;10.00;99.90;;;;;;5111289;28;20295;-49
2022/10/18 01:24:21;;;;;;;15.48;4.90;;;10.00;99.90;;;;;;5111048;28;20094;-48
2022/10/18 01:27:03;;;;;;;12.65;4.43;;;10.00;99.90;;;;;;5117351;28;20075;-49
2022/10/18 01:29:48;;;;;;;13.43;4.45;;;10.00;99.90;;;;;;5130418;28;20044;-45
2022/10/18 01:32:21;;;;;;;14.15;4.43;;;10.00;99.90;;;;;;5114160;28;20044;-51
2022/10/18 01:34:51;;;;;;;9.75;4.80;;;9.90;99.90;;;;;;5124599;28;20078;-50
2022/10/18 01:37:20;;;;;;;11.35;4.55;;;9.90;99.90;;;;;;5110478;28;20047;-49
2022/10/18 01:39:49;;;;;;;9.30;4.38;;;9.90;99.90;;;;;;5110714;28;20036;-48
2022/10/18 01:42:19;;;;;;;8.30;3.75;;;9.80;99.90;;;;;;5129923;28;20474;-49
2022/10/18 01:44:48;;;;;;;11.00;4.28;;;9.90;99.90;;;;;;5117158;28;20071;-49
2022/10/18 01:47:16;;;;;;;17.17;4.97;;;9.90;99.90;;;;;;5111230;28;20168;-48
2022/10/18 01:49:43;;;;;;;10.25;4.80;;;9.80;99.90;;;;;;5110419;28;20051;-47
2022/10/18 01:52:14;;;;;;;9.43;4.40;;;9.80;99.90;;;;;;5128420;28;20082;-48
2022/10/18 01:54:49;;;;;;;12.05;4.93;;;9.80;99.90;;;;;;5130382;28;20564;-46
2022/10/18 01:57:45;;;;;;;10.27;4.18;;;9.80;99.90;;;;;;5125962;28;20073;-49
2022/10/18 02:00:16;;;;;;;10.40;4.25;;;9.80;99.90;;;;;;5119725;28;20067;-48
2022/10/18 02:02:55;;;;;;;8.80;4.70;;;9.80;99.90;;;;;;5111422;28;20035;-49
2022/10/18 02:05:39;;;;;;;8.40;4.68;;;9.80;99.90;;;;;;5112664;27;20500;-47
2022/10/18 02:08:19;;;;;;;11.63;4.57;;;9.80;99.90;;;;;;5112823;27;20403;-48
2022/10/18 02:11:13;;;;;;;14.20;4.80;;;9.90;99.90;;;;;;5115313;27;20519;-48
2022/10/18 02:13:47;;;;;;;6.78;4.00;;;9.80;99.90;;;;;;5113720;28;20073;-47
2022/10/18 02:16:42;;;;;;;10.77;4.50;;;9.80;99.90;;;;;;5123425;27;20098;-50
2022/10/18 02:19:25;;;;;;;8.32;4.60;;;9.80;99.90;;;;;;5125126;27;20075;-48
2022/10/18 02:21:54;;;;;;;9.50;4.68;;;9.80;99.90;;;;;;5134558;27;20074;-47
2022/10/18 02:24:25;;;;;;;8.30;3.20;;;9.80;99.90;;;;;;5117670;27;20440;-46
2022/10/18 02:26:52;;;;;;;18.60;4.75;;;9.80;99.90;;;;;;5131254;27;20094;-49
2022/10/18 02:29:19;;;;;;;9.80;3.25;;;9.60;99.90;;;;;;5132065;27;20606;-49
2022/10/18 02:31:48;;;;;;;11.57;3.83;;;9.50;99.90;;;;;;5133263;27;20063;-48
2022/10/18 02:34:23;;;;;;;6.93;3.13;;;9.30;99.90;;;;;;5133627;27;20074;-48
2022/10/18 02:36:56;;;;;;;12.50;3.92;;;9.30;99.90;;;;;;5129829;27;20074;-48
2022/10/18 02:39:29;;;;;;;6.13;3.47;;;9.30;99.90;;;;;;5122543;27;20039;-47
2022/10/18 02:41:57;;;;;;;13.50;3.70;;;9.30;99.90;;;;;;5114320;28;20411;-48
2022/10/18 02:44:24;;;;;;;;;;;9.30;99.90;;;;;;5116063;27;20083;-48
2022/10/18 02:46:51;;;;;;;8.57;3.50;;;9.20;99.90;;;;;;5134442;27;20296;-48
2022/10/18 02:49:18;;;;;;;8.52;3.35;;;9.10;99.90;;;;;;5134082;27;20054;-48
2022/10/18 02:51:44;;;;;;;7.47;2.80;;;9.00;99.90;;;;;;5130785;27;20070;-48
2022/10/18 02:54:11;;;;;;;6.60;3.28;;;8.90;99.90;;;;;;5121994;27;20113;-49
2022/10/18 02:56:38;;;;;;;6.22;3.60;;;8.90;99.90;;;;;;5126099;27;20069;-47
2022/10/18 02:59:06;;;;;;;9.07;4.13;;;8.90;99.90;;;;;;5134267;27;20122;-48
2022/10/18 03:01:34;;;;;;;6.05;3.22;;;9.00;99.90;;;;;;5134105;27;20496;-51
2022/10/18 03:04:02;;;;;;;8.75;4.25;;;9.00;99.90;;;;;;5123177;27;20051;-48
2022/10/18 03:06:30;;;;;;;9.45;4.70;;;9.10;99.90;;;;;;5114008;27;20101;-48
2022/10/18 03:08:57;;;;;;;8.65;4.55;;;9.10;99.90;;;;;;5112998;27;20555;-48
2022/10/18 03:11:24;;;;;;;12.00;4.32;;;9.20;99.90;;;;;;5121725;27;20480;-48
2022/10/18 03:13:51;;;;;;;9.25;4.72;;;9.30;99.90;;;;;;5112575;28;20576;-48
2022/10/18 03:16:18;;;;;;;12.45;4.75;;;9.30;99.90;;;;;;5113480;27;20127;-50
2022/10/18 03:18:45;;;;;;;;;;;9.30;99.90;;;;;;5134416;27;20132;-48
2022/10/18 03:21:11;;;;;;;7.63;4.05;;;9.40;99.90;;;;;;5125632;27;19988;-49
2022/10/18 03:23:40;;;;;;;11.00;4.88;;;9.30;99.90;;;;;;5112776;27;20540;-48
2022/10/18 03:26:08;;;;;;;8.80;4.70;;;9.30;99.90;;;;;;5119051;27;20507;-48
2022/10/18 03:28:34;;;;;;;;;;;9.20;99.90;;;;;;5130594;27;20122;-49
2022/10/18 03:31:02;;;;;;;;;;;9.20;99.90;;;;;;5130631;27;19927;-49
2022/10/18 03:33:30;;;;;;;;;;;9.20;99.90;;;;;;5122435;27;19972;-48
2022/10/18 03:35:57;;;;;;;;;;;9.10;99.90;;;;;;5124419;27;19920;-51
2022/10/18 03:38:23;;;;;;;;;;;9.20;99.90;;;;;;5123274;27;19955;-49
2022/10/18 03:40:50;;;;;;;;;;;9.20;99.90;;;;;;5123552;27;19927;-48
2022/10/18 03:43:17;;;;;;;;;;;9.30;99.90;;;;;;5117450;27;20448;-47
2022/10/18 03:45:43;;;;;;;;;;;9.30;99.90;;;;;;5126866;27;20006;-48
2022/10/18 03:48:10;;;;;;;;;;;9.20;99.90;;;;;;5133975;27;19959;-48
2022/10/18 03:50:36;;;;;;;;;;;9.20;99.90;;;;;;5120874;27;19947;-48
2022/10/18 03:53:03;;;;;;;;;;;9.20;99.90;;;;;;5122021;27;20355;-48
2022/10/18 03:55:30;;;;;;;;;;;9.20;99.90;;;;;;5126928;27;19919;-48
2022/10/18 03:57:56;;;;;;;;;;;9.20;99.90;;;;;;5115376;27;19969;-48
2022/10/18 04:00:23;;;;;;;;;;;9.20;99.90;;;;;;5118971;27;19966;-48
2022/10/18 04:02:49;;;;;;;;;;;9.20;99.90;;;;;;5118396;27;20019;-48
2022/10/18 04:05:22;;;;;;;;;;;9.20;99.90;;;;;;5112494;28;20295;-48
2022/10/18 04:07:49;;;;;;;;;;;9.20;99.90;;;;;;5128716;27;19942;-48
2022/10/18 04:10:17;;;;;;;;;;;9.30;99.90;;;;;;5116693;27;19949;-48
2022/10/18 04:12:44;;;;;;;;;;;9.30;99.90;;;;;;5132721;27;19966;-48
2022/10/18 04:15:10;;;;;;;;;;;9.30;99.90;;;;;;5130138;27;19950;-47
2022/10/18 04:17:37;;;;;;;;;;;9.30;99.90;;;;;;5114340;27;20023;-49
2022/10/18 04:20:04;;;;;;;;;;;9.30;99.90;;;;;;5123887;27;19954;-49
2022/10/18 04:22:30;;;;;;;;;;;9.30;99.90;;;;;;5123011;27;19951;-47
2022/10/18 04:24:57;;;;;;;;;;;9.20;99.90;;;;;;5122295;27;19972;-48
2022/10/18 04:27:24;;;;;;;;;;;9.20;99.90;;;;;;5130229;27;19959;-47
2022/10/18 04:29:50;;;;;;;;;;;9.30;99.90;;;;;;5121864;27;20468;-48
2022/10/18 04:32:17;;;;;;;;;;;9.30;99.90;;;;;;5130816;27;20014;-49
2022/10/18 04:34:44;;;;;;;;;;;9.30;99.90;;;;;;5132404;27;19919;-48
2022/10/18 04:37:10;;;;;;;;;;;9.40;99.90;;;;;;5112502;27;20591;-48
2022/10/18 04:39:37;;;;;;;;;;;9.40;99.90;;;;;;5119903;27;19955;-49
2022/10/18 04:42:03;;;;;;;;;;;9.40;99.90;;;;;;5112326;28;19969;-49
2022/10/18 04:44:30;;;;;;;;;;;9.30;99.90;;;;;;5111278;28;20395;-48
2022/10/18 04:46:57;;;;;;;;;;;9.20;99.90;;;;;;5118969;27;20370;-49
2022/10/18 04:49:23;;;;;;;;;;;9.20;99.90;;;;;;5132785;27;19958;-47
2022/10/18 04:51:50;;;;;;;;;;;9.20;99.90;;;;;;5123907;28;19920;-48
2022/10/18 04:54:17;;;;;;;;;;;9.20;99.90;;;;;;5119991;27;19970;-49
2022/10/18 04:56:43;;;;;;;;;;;9.40;99.90;;;;;;5125450;28;19951;-51
2022/10/18 04:59:10;;;;;;;;;;;9.50;99.90;;;;;;5132246;28;20149;-48
2022/10/18 05:01:36;;;;;;;;;;;9.50;99.90;;;;;;5119576;28;19966;-49
2022/10/18 05:04:03;;;;;;;;;;;9.40;99.90;;;;;;5115689;28;19951;-48
2022/10/18 05:06:30;;;;;;;;;;;9.30;99.90;;;;;;5123852;28;19954;-48
2022/10/18 05:08:56;;;;;;;;;;;9.30;99.90;;;;;;5132408;28;19962;-48
2022/10/18 05:11:23;;;;;;;;;;;9.30;99.90;;;;;;5120188;28;19958;-49
2022/10/18 05:13:50;;;;;;;;;;;9.30;99.90;;;;;;5111731;28;20388;-48
2022/10/18 05:16:16;;;;;;;;;;;9.20;99.90;;;;;;5112036;28;19981;-47
2022/10/18 05:18:43;;;;;;;;;;;9.20;99.90;;;;;;5111605;28;20391;-48
2022/10/18 05:21:11;;;;;;;;;;;9.20;99.90;;;;;;5120218;28;19945;-48
2022/10/18 05:23:38;;;;;;;;;;;9.20;99.90;;;;;;5112109;28;19951;-48
2022/10/18 05:26:05;;;;;;;;;;;9.20;99.90;;;;;;5121968;28;20010;-50
2022/10/18 05:28:32;;;;;;;;;;;9.20;99.90;;;;;;5119716;28;20360;-48
2022/10/18 05:31:06;;;;;;;;;;;9.20;99.90;;;;;;5115584;28;19962;-48
2022/10/18 05:33:33;;;;;;;;;;;9.10;99.90;;;;;;5111583;28;20010;-48
2022/10/18 05:36:00;;;;;;;;;;;9.10;99.90;;;;;;5111536;28;20375;-50
2022/10/18 05:38:29;;;;;;;;;;;9.10;99.90;;;;;;5120505;28;20015;-48
2022/10/18 05:40:56;;;;;;;;;;;9.00;99.90;;;;;;5115921;28;19923;-49
2022/10/18 05:43:26;;;;;;;;;;;8.80;99.90;;;;;;5115659;28;19920;-48
2022/10/18 05:45:53;;;;;;;;;;;8.70;99.90;;;;;;5121702;27;19946;-48
2022/10/18 05:48:19;;;;;;;;;;;8.70;99.90;;;;;;5117064;27;20031;-47
2022/10/18 05:50:46;;;;;;;;;;;8.70;99.90;;;;;;5115048;28;20014;-49
2022/10/18 05:53:12;;;;;;;;;;;8.60;99.90;;;;;;5116079;27;20444;-47
2022/10/18 05:56:00;;;;;;;;;;;8.60;99.90;;;;;;5120005;27;19920;-48
2022/10/18 05:58:26;;;;;;;;;;;8.50;99.90;;;;;;5115219;28;20456;-48
2022/10/18 06:00:53;;;;;;;;;;;8.50;99.90;;;;;;5115043;28;20002;-48
2022/10/18 06:03:20;;;;;;;;;;;8.40;99.90;;;;;;5123842;27;20013;-47
2022/10/18 06:05:46;;;;;;;;;;;8.40;99.90;;;;;;5114878;28;19926;-48
2022/10/18 06:08:13;;;;;;;;;;;8.40;99.90;;;;;;5115210;28;19926;-48
2022/10/18 06:10:39;;;;;;;;;;;8.40;99.90;;;;;;5120057;27;19946;-48
2022/10/18 06:13:06;;;;;;;;;;;8.50;99.90;;;;;;5118339;27;19971;-49
2022/10/18 06:15:33;;;;;;;;;;;8.50;99.90;;;;;;5114726;27;20024;-47
2022/10/18 06:17:59;;;;;;;;;;;8.50;99.90;;;;;;5114877;27;20384;-47
2022/10/18 06:20:26;;;;;;;;;;;8.40;99.90;;;;;;5123115;27;19978;-48
2022/10/18 06:22:53;;;;;;;;;;;8.50;99.90;;;;;;5114930;28;20378;-48
2022/10/18 06:25:19;;;;;;;;;;;8.30;99.90;;;;;;5114651;28;19919;-49
2022/10/18 06:27:46;;;;;;;;;;;8.40;99.90;;;;;;5120098;27;19923;-48
2022/10/18 06:30:14;;;;;;;;;;;8.30;99.90;;;;;;5117243;27;19963;-48
2022/10/18 06:32:41;;;;;;;;;;;8.30;99.90;;;;;;5115593;27;20366;-48
2022/10/18 06:35:07;;;;;;;;;;;8.40;99.90;;;;;;5129449;27;20413;-47
2022/10/18 06:37:52;;;;;;;;;;;8.50;99.90;;;;;;5122906;22;19959;-53
2022/10/18 06:40:19;;;;;;;;;;;8.60;99.90;;;;;;5088498;28;20343;-49
2022/10/18 06:42:46;;;;;;;;;;;8.70;99.90;;;;;;5089564;28;19974;-49
2022/10/18 06:45:26;;;;;;;;;;;8.80;99.90;;;;;;5074380;28;19928;-52
2022/10/18 06:47:52;;;;;;;;;;;8.80;99.90;;;;;;5085827;28;19963;-51
2022/10/18 06:50:19;;;;;;;;;;;8.90;99.90;;;;;;5082145;28;20357;-50
2022/10/18 06:52:47;;;;;;;;;;;9.00;99.90;;;;;;5087830;28;19921;-50
2022/10/18 06:55:14;;;;;;;;;;;9.10;99.90;;;;;;5081131;28;19988;-48
2022/10/18 06:57:41;;;;;;;;;;;9.10;99.90;;;;;;5072202;28;19962;-48
2022/10/18 07:00:08;;;;;;;;;;;9.20;99.90;;;;;;5083993;28;19927;-52
2022/10/18 07:02:36;;;;;;;;;;;9.30;99.90;;;;;;5073634;28;20339;-48
2022/10/18 07:05:02;;;;;;;;;;;9.40;99.90;;;;;;5073077;28;19920;-48
2022/10/18 07:07:29;;;;;;;;;;;9.50;99.90;;;;;;5081140;28;19956;-51
2022/10/18 07:09:57;;;;;;;;;;;9.60;99.90;;;;;;5088902;28;19924;-50
2022/10/18 07:12:23;;;;;;;;;;;9.70;99.90;;;;;;5080536;28;20014;-49
2022/10/18 07:14:50;;;;;;;;;;;10.00;99.90;;;;;;5072773;28;19960;-49
2022/10/18 07:17:17;;;;;;;;;;;10.20;99.90;;;;;;5072573;28;20015;-51
2022/10/18 07:19:43;;;;;;;;;;;10.30;99.90;;;;;;5078210;28;19959;-50
2022/10/18 07:22:10;;;;;;;;;;;10.40;99.90;;;;;;5092200;28;19959;-50
2022/10/18 07:24:36;;;;;;;;;;;10.50;99.90;;;;;;5088755;28;20411;-50
2022/10/18 07:27:03;;;;;;;;;;;10.70;99.90;;;;;;5081487;28;19927;-49
2022/10/18 07:29:30;;;;;;;;;;;10.80;99.90;;;;;;5093173;28;19963;-49
2022/10/18 07:31:57;;;;;;;;;;;10.90;99.90;;;;;;5093313;28;20023;-51
2022/10/18 07:34:23;;;;;;;;;;;11.10;99.90;;;;;;5079547;28;20342;-50
2022/10/18 07:36:50;;;;;;;;;;;11.10;99.90;;;;;;5079713;28;19931;-52
2022/10/18 07:39:17;;;;;;;;;;;11.20;99.90;;;;;;5072182;28;19971;-49
2022/10/18 07:41:43;;;;;;;;;;;11.30;99.90;;;;;;5072475;28;19970;-52
2022/10/18 07:44:10;;;;;;;;;;;11.40;99.90;;;;;;5072276;28;20377;-52
2022/10/18 07:46:36;;;;;;;;;;;11.50;99.90;;;;;;5080614;28;19952;-52
2022/10/18 07:49:03;;;;;;;;;;;11.70;99.90;;;;;;5088860;28;19955;-50
2022/10/18 07:51:31;;;;;;;;;;;11.90;99.90;;;;;;5092988;28;20020;-52
2022/10/18 07:53:58;;;;;;;;;;;12.00;99.90;;;;;;5072094;28;19920;-49
2022/10/18 07:56:24;;;;;;;;;;;12.10;99.90;;;;;;5072327;28;19955;-52
2022/10/18 07:58:52;;;;;;;;;;;12.20;99.90;;;;;;5072257;28;19960;-49
2022/10/18 08:01:19;;;;;;;;;;;12.30;99.90;;;;;;5058367;28;19924;-49
2022/10/18 08:03:46;;;;;;;;;;;12.40;99.90;;;;;;5071637;28;20369;-53
2022/10/18 08:06:15;;;;;;;;;;;12.60;99.90;;;;;;5072094;28;20292;-49
2022/10/18 08:08:41;;;;;;;;;;;12.70;99.90;;;;;;5072010;28;20388;-50
2022/10/18 08:11:09;;;;;;;;;;;12.80;99.90;;;;;;5080517;28;20007;-53
2022/10/18 08:13:36;;;;;;;;;;;13.10;99.90;;;;;;5092118;28;20392;-49
2022/10/18 08:16:04;;;;;;;;;;;13.10;99.90;;;;;;5092356;28;19959;-51
2022/10/18 08:18:31;;;;;;;;;;;13.20;99.90;;;;;;5083765;28;19924;-48
2022/10/18 08:20:58;;;;;;;;;;;13.30;99.90;;;;;;5087362;28;19970;-49
2022/10/18 08:23:25;;;;;;;;;;;13.40;99.90;;;;;;5089068;28;19951;-48
2022/10/18 08:25:51;;;;;;;;;;;13.60;99.90;;;;;;5077471;28;20338;-48
2022/10/18 08:28:18;;;;;;;;;;;13.70;99.90;;;;;;5072762;28;20345;-49
2022/10/18 08:30:45;;;;;;;;;;;13.70;99.90;;;;;;5071944;28;19971;-51
2022/10/18 08:33:11;;;;;;;;;;;13.90;99.90;;;;;;5071010;28;20022;-50
2022/10/18 08:35:38;;;;;;;;;;;13.90;99.90;;;;;;5070720;28;20273;-50
2022/10/18 08:38:09;;;;;;;;;;;14.10;99.90;;;;;;5070894;28;19920;-50
2022/10/18 08:40:41;;;;;;;;;;;14.20;99.90;;;;;;5071414;28;20019;-52
2022/10/18 08:43:21;;;;;;;;;;;14.30;99.90;;;;;;5079859;28;19975;-50
2022/10/18 08:45:48;;;;;;;;;;;14.10;99.90;;;;;;5071170;28;20296;-52
2022/10/18 08:48:18;;;;;;;;;;;14.00;99.90;;;;;;5071874;28;19951;-49
2022/10/18 08:50:45;;;;;;;;;;;14.10;99.90;;;;;;5076553;28;19947;-51
2022/10/18 08:53:15;;;;;;;;;;;13.90;99.90;;;;;;5083338;28;19920;-49
2022/10/18 08:55:47;;;;;;;;;;;13.80;99.90;;;;;;5091934;28;19960;-49
2022/10/18 08:58:16;;;;;;;;;;;13.60;99.90;;;;;;5084285;28;19956;-49
2022/10/18 09:00:48;;;;;;;;;;;13.60;99.90;;;;;;5083712;28;20012;-52
2022/10/18 09:03:24;;;;;;;;;;;13.70;99.90;;;;;;5087545;28;19975;-50
2022/10/18 09:05:53;;;;;;;;;;;13.80;99.90;;;;;;5071191;28;20467;-52
2022/10/18 09:08:20;;;;;;;;;;;13.90;99.90;;;;;;5071011;28;20449;-49
2022/10/18 09:11:13;;;;;;;;;;;14.20;99.90;;;;;;5071254;28;19970;-50
2022/10/18 09:13:58;;;;;;;;;;;14.40;99.90;;;;;;5042055;28;19928;-51
2022/10/18 09:16:33;;;;;;;;;;;14.60;99.90;;;;;;5095534;28;20023;-51
2022/10/18 09:19:01;;;;;;;;;;;14.80;99.90;;;;;;5095785;28;19946;-50
2022/10/18 09:21:28;;;;;;;;;;;15.00;99.90;;;;;;5081976;28;20432;-49
2022/10/18 09:24:00;;;;;;;;;;;15.20;99.90;;;;;;5074746;28;19978;-50
2022/10/18 09:26:28;;;;;;;;;;;15.40;99.90;;;;;;5075080;28;20019;-53
2022/10/18 09:29:06;;;;;;;;;;;15.50;99.90;;;;;;5078163;28;20057;-48
2022/10/18 09:31:36;;;;;;;;;;;15.70;99.90;;;;;;5075474;28;19927;-52
2022/10/18 09:34:07;;;;;;;;;;;15.90;99.90;;;;;;5074686;28;20015;-52
2022/10/18 09:36:36;;;;;;;;;;;15.90;99.90;;;;;;5078451;28;20455;-49
2022/10/18 09:39:04;;;;;;;;;;;15.90;99.90;;;;;;5069173;28;19981;-52
2022/10/18 09:41:38;;;;;;;;;;;15.90;99.90;;;;;;5095425;28;19951;-52
2022/10/18 09:44:12;;;;;;;;;;;15.80;99.90;;;;;;5081643;28;19920;-50
2022/10/18 09:46:42;;;;;;;;;;;16.00;99.90;;;;;;5074927;28;20409;-48
2022/10/18 09:49:15;;;;;;;;;;;16.10;99.90;;;;;;5075031;28;19920;-51
2022/10/18 09:51:43;;;;;;;;;;;16.20;99.90;;;;;;5074902;28;19921;-49
2022/10/18 09:54:10;;;;;;;;;;;16.40;99.90;;;;;;5082848;28;19924;-50
2022/10/18 09:56:47;;;;;;;;;;;16.60;99.90;;;;;;5082508;28;19944;-51
2022/10/18 09:59:28;;;;;;;;;;;16.70;99.90;;;;;;5077081;28;19928;-52
2022/10/18 10:01:55;;;;;;;;;;;16.70;99.90;;;;;;5073631;28;19962;-53
2022/10/18 10:04:22;;;;;;;;;;;16.90;99.90;;;;;;5073341;28;19955;-51
2022/10/18 10:06:50;;;;;;;;;;;17.00;99.90;;;;;;5073948;28;19926;-50
2022/10/18 10:09:17;;;;;;;;;;;17.30;99.90;;;;;;5075389;28;19921;-49
2022/10/18 10:11:45;;;;;;;;;;;17.20;99.90;;;;;;5086365;28;19981;-51
2022/10/18 10:14:16;;;;;;;;;;;17.10;99.90;;;;;;5094156;28;20402;-50
2022/10/18 10:16:47;;;;;;;;;;;17.10;99.90;;;;;;5073874;28;19928;-49
2022/10/18 10:19:40;;;;;;;;;;;17.20;99.90;;;;;;5074545;28;19979;-49
2022/10/18 10:22:10;;;;;;;;;;;17.40;99.90;;;;;;5043191;28;20022;-51
2022/10/18 10:24:50;;;;;;;;;;;17.60;99.90;;;;;;5082600;28;20392;-51
2022/10/18 10:27:30;;;;;;;;;;;17.90;99.90;;;;;;5073921;28;20297;-52
2022/10/18 10:30:00;;;;;;;;;;;17.80;99.90;;;;;;5074453;28;19942;-49
2022/10/18 10:32:44;;;;;;;;;;;17.70;99.90;;;;;;5074201;28;19947;-49
2022/10/18 10:35:18;;;;;;;;;;;17.60;99.90;;;;;;5072751;28;19963;-49
2022/10/18 10:38:05;;;;;;;;;;;17.50;99.90;;;;;;5073616;28;19920;-51
2022/10/18 10:40:33;;;;;;;;;;;17.30;99.90;;;;;;5073873;28;19959;-49
2022/10/18 10:43:05;;;;;;;;;;;17.40;99.90;;;;;;5074898;28;20408;-52
2022/10/18 10:46:11;;;;;;;;;;;17.50;99.90;;;;;;5074737;28;20172;-50
2022/10/18 10:48:40;;;;;;;;;;;17.80;99.90;;;;;;5093749;28;20342;-50
2022/10/18 10:51:08;;;;;;;;;;;17.80;99.90;;;;;;5093022;28;19955;-49
2022/10/18 10:53:41;;;;;;;;;;;18.10;99.90;;;;;;5081607;28;20438;-52
2022/10/18 10:56:22;;;;;;;;;;;18.20;99.90;;;;;;5082216;28;19959;-50
2022/10/18 10:58:49;;;;;;;;;;;18.20;99.90;;;;;;5092822;28;20354;-49
2022/10/18 11:01:23;;;;;;;;;;;18.20;99.90;;;;;;5073539;28;20392;-49
2022/10/18 11:03:52;;;;;;;;;;;18.30;99.90;;;;;;5073309;28;19932;-50
2022/10/18 11:06:30;;;;;;;;;;;18.50;99.90;;;;;;5073531;28;19987;-52
2022/10/18 11:08:59;;;;;;;;;;;18.50;99.90;;;;;;5080439;28;20431;-51
2022/10/18 11:11:29;;;;;;;;;;;18.50;99.90;;;;;;5085101;28;20010;-53
2022/10/18 11:14:03;;;;;;;;;;;18.50;99.90;;;;;;5093158;28;19924;-52
2022/10/18 11:16:55;;;;;;;;;;;18.60;99.90;;;;;;5089833;28;19926;-51
2022/10/18 11:19:44;;;;;;;;;;;18.60;99.90;;;;;;5074401;28;19920;-53
2022/10/18 11:22:14;;;;;;;;;;;18.60;99.90;;;;;;5035431;28;19970;-51
2022/10/18 11:24:40;;;;;;;;;;;18.70;99.90;;;;;;5077370;28;19963;-53
2022/10/18 11:27:33;;;;;;;;;;;18.70;99.90;;;;;;5072583;28;20364;-49
2022/10/18 11:30:11;;;;;;;;;;;18.80;99.90;;;;;;5068774;28;20005;-48
2022/10/18 11:32:46;;;;;;;;;;;18.80;99.90;;;;;;5072782;28;19920;-53
2022/10/18 11:35:22;;;;;;;;;;;18.90;99.90;;;;;;5072549;28;19963;-52
2022/10/18 11:38:21;;;;;;;;;;;19.00;99.90;;;;;;5072024;28;20016;-52
2022/10/18 11:41:15;;;;;;;;;;;19.00;99.90;;;;;;5015576;28;19959;-49
2022/10/18 11:43:59;;;;;;;;;;;19.00;99.90;;;;;;5072201;28;19920;-51
2022/10/18 11:46:46;;;;;;;;;;;19.20;99.90;;;;;;5054816;28;19971;-53
2022/10/18 11:49:19;;;;;;;;;;;19.20;99.90;;;;;;5072640;28;19924;-52
2022/10/18 11:51:49;;;;;;;;;;;19.40;99.90;;;;;;5072412;28;19955;-52
2022/10/18 11:54:42;;;;;;;;;;;19.50;99.90;;;;;;5072025;28;19956;-53
2022/10/18 11:57:21;;;;;;;;;;;19.70;99.90;;;;;;5072006;28;19985;-53
2022/10/18 12:00:00;;;;;;;;;;;19.80;99.90;;;;;;5078384;28;20038;-53
2022/10/18 12:02:45;;;;;;;;;;;19.80;99.90;;;;;;5071858;28;19920;-52
2022/10/18 12:05:13;;;;;;;;;;;19.80;99.90;;;;;;5071702;28;19920;-53
2022/10/18 12:08:04;;;;;;;;;;;20.00;99.90;;;;;;5072178;28;19920;-52
2022/10/18 12:10:32;;;;;;;;;;;20.10;99.90;;;;;;5075404;28;19928;-50
2022/10/18 12:13:28;;;;;;;;;;;20.00;99.90;;;;;;5071864;28;20295;-50
2022/10/18 12:15:55;;;;;;;;;;;19.90;99.90;;;;;;5071806;28;19947;-51
2022/10/18 12:18:24;;;;;;;;;;;20.20;99.90;;;;;;5072163;28;19964;-52
2022/10/18 12:20:53;;;;;;;;;;;20.40;99.90;;;;;;5071960;28;19979;-49
2022/10/18 12:23:28;;;;;;;;;;;20.50;99.90;;;;;;5082567;28;19951;-49
2022/10/18 12:25:59;;;;;;;;;;;20.50;99.90;;;;;;5092194;28;19942;-50
2022/10/18 12:28:45;;;;;;;;;;;20.60;99.90;;;;;;5058200;28;20308;-52
2022/10/18 12:31:20;;;;;;;;;;;20.70;99.90;;;;;;5071855;28;19921;-50
2022/10/18 12:33:49;;;;;;;;;;;20.80;99.90;;;;;;5070762;28;20191;-49
2022/10/18 12:39:14;;;;;;;;;;;20.50;99.90;;;;;;5101305;28;19927;-51
2022/10/18 12:41:45;;;;;;;;;;;20.40;99.90;;;;;;5110952;28;19923;-48
2022/10/18 12:44:19;;;;;;;;;;;20.40;99.90;;;;;;5110322;28;19919;-49
2022/10/18 12:46:53;;;;;;;;;;;20.30;99.90;;;;;;5110665;28;19959;-48
2022/10/18 12:49:40;;;;;;;;;;;20.30;99.90;;;;;;5093727;28;20399;-48
2022/10/18 12:52:20;;;;;;;;;;;20.40;99.90;;;;;;5111796;28;19946;-49
2022/10/18 12:55:04;;;;;;;;;;;20.40;99.90;;;;;;5110716;28;20426;-48
2022/10/18 12:57:50;;;;;;;;;;;20.40;99.90;;;;;;5109551;28;20332;-48
2022/10/18 13:00:29;;;;;;;;;;;20.30;99.90;;;;;;5112151;28;19919;-49
2022/10/18 13:03:08;;;;;;;;;;;20.20;99.90;;;;;;5110610;28;19962;-48
2022/10/18 13:05:46;;;;;;;;;;;20.20;99.90;;;;;;5111727;28;19923;-50
2022/10/18 13:08:21;;;;;;;;;;;20.10;99.90;;;;;;5111671;28;19974;-49
2022/10/18 13:11:11;;;;;;;;;;;20.00;99.90;;;;;;5110681;28;20011;-50
2022/10/18 13:14:02;;;;;;;;;;;20.00;99.90;;;;;;5104138;28;20384;-48
2022/10/18 13:16:47;;;;;;;;;;;20.00;99.90;;;;;;5112137;28;19984;-48
2022/10/18 13:19:20;;;;;;;;;;;20.00;99.90;;;;;;5107752;28;20291;-48
2022/10/18 13:21:52;;;;;;;;;;;20.00;99.90;;;;;;5091529;28;19975;-48
2022/10/18 13:24:28;;;;;;;;;;;20.00;99.90;;;;;;5091101;28;20011;-48
2022/10/18 13:26:58;;;;;;;;;;;20.10;99.90;;;;;;5093474;28;20009;-48
2022/10/18 13:29:54;;;;;;;;;;;20.10;99.90;;;;;;5091358;28;19920;-48
2022/10/18 13:32:34;;;;;;;;;;;20.00;99.90;;;;;;5090462;28;19946;-50
2022/10/18 13:35:01;;;;;;;;;;;19.90;99.90;;;;;;5097119;28;20472;-48
2022/10/18 13:37:28;;;;;;;;;;;19.80;99.90;;;;;;5109890;28;20321;-49
2022/10/18 13:40:20;;;;;;;;;;;19.70;99.90;;;;;;5111405;28;20019;-49
2022/10/18 13:42:46;;;;;;;;;;;19.70;99.90;;;;;;5111887;28;19920;-48
2022/10/18 13:45:31;;;;;;;;;;;19.70;99.90;;;;;;5109179;28;19920;-48
2022/10/18 13:48:16;;;;;;;;;;;19.70;99.90;;;;;;5107018;28;19923;-49
2022/10/18 13:50:45;;;;;;;;;;;19.70;99.90;;;;;;5111823;28;19920;-48
2022/10/18 13:53:14;;;;;;;;;;;19.70;99.90;;;;;;5108517;28;19919;-48
2022/10/18 13:55:46;;;;;;;;;;;19.70;99.90;;;;;;5090634;28;19977;-48
2022/10/18 13:58:30;;;;;;;;;;;19.70;99.90;;;;;;5095584;28;19920;-49
2022/10/18 14:01:15;;;;;;;;;;;19.60;99.90;;;;;;5114302;28;19972;-49
2022/10/18 14:04:11;;;;;;;;;;;19.60;99.90;;;;;;5114865;28;19919;-50
2022/10/18 14:06:42;;;;;;;;;;;19.50;99.90;;;;;;5095917;28;20305;-49
2022/10/18 14:09:19;;;;;;;;;;;19.40;99.90;;;;;;5106705;28;19958;-50
2022/10/18 14:12:24;;;;;;;;;;;19.30;99.90;;;;;;5115388;28;19926;-48
2022/10/18 14:15:06;;;;;;;;;;;19.30;99.90;;;;;;5113243;28;20018;-49
2022/10/18 14:17:47;;;;;;;;;;;19.30;99.90;;;;;;5107004;28;19926;-48
2022/10/18 14:20:32;;;;;;;;;;;19.40;99.90;;;;;;5115113;28;19920;-48
2022/10/18 14:23:22;;;;;;;;;;;19.60;99.90;;;;;;5094297;28;19924;-50
2022/10/18 14:25:48;;;;;;;;;;;19.80;99.90;;;;;;5098298;28;20339;-48
2022/10/18 14:28:16;;;;;;;;;;;19.90;99.90;;;;;;5094261;28;19920;-48